Time;durP1;ratioP1;P1;durP2;ratioP2;P2;SDS_P1;SDS_P2;PMS_P1;PMS_P2;Temp;Humidity;BMP_temperature;BMP_pressure;BME280_temperature;BME280_humidity;BME280_pressure;Samples;Min_cycle;Max_cycle;Signal;HPM_P1;HPM_P2
2022/07/15 00:01:22;;;;;;;2.58;0.47;;;15.10;95.90;;;;;;5005024;28;20595;-80
2022/07/15 00:03:49;;;;;;;4.32;0.68;;;15.00;96.00;;;;;;4961022;28;20041;-79
2022/07/15 00:06:16;;;;;;;3.17;0.55;;;15.00;96.10;;;;;;4975186;28;20067;-81
2022/07/15 00:08:42;;;;;;;4.82;0.60;;;14.90;96.20;;;;;;5007734;28;20045;-82
2022/07/15 00:11:09;;;;;;;3.92;0.70;;;14.90;96.40;;;;;;4992661;28;20136;-85
2022/07/15 00:13:35;;;;;;;5.18;0.88;;;14.90;96.60;;;;;;4958127;28;20052;-81
2022/07/15 00:16:02;;;;;;;5.05;0.60;;;14.80;96.80;;;;;;4989232;28;20052;-83
2022/07/15 00:18:28;;;;;;;3.33;0.63;;;14.80;97.00;;;;;;5009019;28;20045;-84
2022/07/15 00:20:55;;;;;;;7.03;0.60;;;14.80;97.10;;;;;;4973030;28;20040;-83
2022/07/15 00:23:21;;;;;;;3.50;0.70;;;14.70;97.30;;;;;;4974345;28;20052;-83
2022/07/15 00:25:48;;;;;;;5.53;0.50;;;14.70;97.50;;;;;;4991755;28;20044;-83
2022/07/15 00:28:15;;;;;;;4.28;0.50;;;14.70;97.60;;;;;;4992136;28;20044;-83
2022/07/15 00:30:42;;;;;;;7.45;0.68;;;14.60;97.80;;;;;;4962572;28;20045;-82
2022/07/15 00:33:10;;;;;;;3.17;0.47;;;14.70;97.90;;;;;;5005993;28;20046;-82
2022/07/15 00:35:37;;;;;;;7.47;0.65;;;14.60;97.90;;;;;;4973246;28;20531;-83
2022/07/15 00:38:08;;;;;;;4.22;0.50;;;14.60;98.10;;;;;;4989667;28;20472;-82
2022/07/15 00:40:46;;;;;;;3.38;0.50;;;14.60;98.20;;;;;;4988297;28;20052;-81
2022/07/15 00:43:17;;;;;;;3.53;0.57;;;14.60;98.30;;;;;;4989147;28;20056;-82
2022/07/15 00:45:45;;;;;;;3.80;1.25;;;14.60;98.40;;;;;;5006311;28;20041;-81
2022/07/15 00:48:12;;;;;;;4.00;0.63;;;14.60;98.50;;;;;;4993714;28;20044;-81
2022/07/15 00:50:39;;;;;;;2.95;1.00;;;14.60;98.40;;;;;;4986074;28;20048;-81
2022/07/15 00:53:21;;;;;;;4.50;0.60;;;14.60;98.60;;;;;;5004911;28;20048;-82
2022/07/15 00:55:49;;;;;;;5.13;0.60;;;14.50;98.70;;;;;;4989107;28;20092;-82
2022/07/15 00:58:25;;;;;;;3.30;0.45;;;14.60;98.90;;;;;;4983333;28;20037;-82
2022/07/15 01:01:00;;;;;;;3.25;0.50;;;14.60;99.00;;;;;;4991902;28;20050;-81
2022/07/15 01:03:27;;;;;;;3.92;0.40;;;14.60;99.00;;;;;;5011888;28;20037;-82
2022/07/15 01:05:54;;;;;;;4.97;0.50;;;14.60;99.00;;;;;;4979385;28;20064;-81
2022/07/15 01:08:52;;;;;;;4.28;0.40;;;14.60;99.10;;;;;;4985754;28;20049;-81
2022/07/15 01:11:19;;;;;;;2.90;0.43;;;14.60;99.30;;;;;;5010970;28;20503;-81
2022/07/15 01:14:36;;;;;;;2.22;0.50;;;14.60;99.20;;;;;;5009476;28;21034;-82
2022/07/15 01:17:35;;;;;;;5.65;0.70;;;14.70;99.30;;;;;;5009430;28;20030;-82
2022/07/15 01:20:22;;;;;;;3.90;0.50;;;14.80;99.40;;;;;;4992384;28;20053;-82
2022/07/15 01:23:02;;;;;;;3.92;0.60;;;14.80;99.30;;;;;;5006267;28;20408;-82
2022/07/15 01:25:39;;;;;;;3.60;0.60;;;14.90;99.50;;;;;;4989348;28;20528;-81
2022/07/15 01:28:11;;;;;;;3.97;0.50;;;14.90;99.50;;;;;;4978233;28;20053;-82
2022/07/15 01:30:56;;;;;;;2.85;0.70;;;14.90;99.80;;;;;;5008710;28;20040;-82
2022/07/15 01:33:27;;;;;;;2.03;0.32;;;14.90;99.50;;;;;;4982641;28;20033;-82
2022/07/15 01:35:55;;;;;;;1.83;0.50;;;14.90;99.50;;;;;;4977221;28;20413;-81
2022/07/15 01:38:38;;;;;;;3.95;0.43;;;15.00;99.60;;;;;;4994721;28;20065;-83
2022/07/15 01:41:05;;;;;;;3.78;0.38;;;15.00;99.70;;;;;;4972944;28;20059;-81
2022/07/15 01:43:35;;;;;;;2.78;0.55;;;15.00;99.70;;;;;;4994311;28;20042;-82
2022/07/15 01:46:03;;;;;;;6.35;0.60;;;15.10;99.80;;;;;;5011843;28;20030;-82
2022/07/15 01:51:58;;;;;;;2.15;0.40;;;15.10;99.70;;;;;;4970195;28;20050;-79
2022/07/15 01:54:39;;;;;;;3.63;0.40;;;15.20;99.70;;;;;;4984133;28;20057;-81
2022/07/15 01:57:08;;;;;;;2.05;0.40;;;15.20;99.90;;;;;;5013835;28;20049;-79
2022/07/15 01:59:51;;;;;;;2.38;0.40;;;15.20;99.90;;;;;;4980419;28;20048;-80
2022/07/15 02:02:30;;;;;;;4.53;0.43;;;15.30;99.90;;;;;;4996583;28;20033;-80
2022/07/15 02:04:57;;;;;;;3.03;0.40;;;15.30;99.90;;;;;;4995193;28;20060;-80
2022/07/15 02:07:24;;;;;;;1.70;0.40;;;15.40;99.90;;;;;;4994571;28;20029;-80
2022/07/15 02:09:50;;;;;;;2.83;0.60;;;15.40;99.90;;;;;;5009771;28;20707;-80
2022/07/15 02:12:17;;;;;;;4.72;0.40;;;15.40;99.80;;;;;;4984808;28;20539;-79
2022/07/15 02:14:54;;;;;;;2.60;0.90;;;15.40;99.90;;;;;;4976755;28;20056;-80
2022/07/15 02:17:20;;;;;;;8.85;0.70;;;15.40;99.90;;;;;;4998349;28;20041;-80
2022/07/15 02:19:47;;;;;;;1.45;0.38;;;15.40;99.90;;;;;;4993724;28;20051;-80
2022/07/15 02:22:13;;;;;;;1.55;0.30;;;15.40;99.90;;;;;;4983131;28;20056;-81
2022/07/15 02:24:39;;;;;;;2.10;0.40;;;15.40;99.90;;;;;;5003833;28;20050;-80
2022/07/15 02:27:07;;;;;;;1.92;0.50;;;15.40;99.90;;;;;;4963663;28;20048;-81
2022/07/15 02:29:34;;;;;;;3.70;0.40;;;15.40;99.90;;;;;;4961270;28;20033;-80
2022/07/15 02:32:00;;;;;;;1.70;0.32;;;15.40;99.90;;;;;;4977673;28;20037;-80
2022/07/15 02:34:27;;;;;;;2.38;0.57;;;15.40;99.90;;;;;;4993960;28;20061;-81
2022/07/15 02:36:53;;;;;;;2.83;0.47;;;15.40;99.90;;;;;;4991594;28;20470;-80
2022/07/15 02:39:20;;;;;;;3.25;0.40;;;15.40;99.90;;;;;;4992181;28;20519;-80
2022/07/15 02:41:47;;;;;;;2.88;0.52;;;15.40;99.90;;;;;;4944156;28;20035;-80
2022/07/15 02:44:14;;;;;;;3.58;0.55;;;15.40;99.90;;;;;;5008689;28;20049;-82
2022/07/15 02:46:43;;;;;;;3.70;0.60;;;15.50;99.90;;;;;;4993464;28;20042;-80
2022/07/15 02:49:11;;;;;;;3.60;0.40;;;15.50;99.90;;;;;;4992485;28;20116;-80
2022/07/15 02:51:38;;;;;;;2.97;0.40;;;15.50;99.90;;;;;;5006644;28;20056;-80
2022/07/15 02:54:07;;;;;;;3.38;0.50;;;15.50;99.90;;;;;;4976577;28;20033;-80
2022/07/15 02:56:47;;;;;;;2.88;0.30;;;15.50;99.90;;;;;;4967810;28;20037;-80
2022/07/15 02:59:16;;;;;;;3.38;0.40;;;15.50;99.90;;;;;;4994999;28;20531;-80
2022/07/15 03:01:47;;;;;;;2.20;0.30;;;15.50;99.90;;;;;;4995454;28;20029;-80
2022/07/15 03:04:19;;;;;;;2.65;0.43;;;15.50;99.90;;;;;;4984679;28;20037;-80
2022/07/15 03:06:54;;;;;;;1.50;0.30;;;15.50;99.90;;;;;;5010779;28;20044;-80
2022/07/15 03:09:30;;;;;;;1.63;0.30;;;15.50;99.90;;;;;;5014194;28;20052;-80
2022/07/15 03:12:27;;;;;;;2.08;0.30;;;15.40;99.90;;;;;;5000980;28;20051;-79
2022/07/15 03:15:36;;;;;;;2.42;0.40;;;15.40;99.90;;;;;;4995262;28;20091;-79
2022/07/15 03:18:08;;;;;;;3.45;0.40;;;15.40;99.90;;;;;;5014417;28;20045;-80
2022/07/15 03:20:53;;;;;;;3.00;0.40;;;15.40;99.90;;;;;;5009818;28;20041;-81
2022/07/15 03:24:03;;;;;;;1.00;0.20;;;15.40;99.90;;;;;;4996260;28;20076;-80
2022/07/15 03:26:42;;;;;;;3.95;0.70;;;15.40;99.90;;;;;;4965611;28;20497;-80
2022/07/15 03:29:24;;;;;;;1.83;0.40;;;15.40;99.90;;;;;;4983421;28;20041;-80
2022/07/15 03:31:55;;;;;;;1.83;0.40;;;15.40;99.90;;;;;;4993100;28;20053;-80
2022/07/15 03:34:46;;;;;;;2.47;0.30;;;15.40;99.90;;;;;;4990362;28;20049;-80
2022/07/15 03:38:25;;;;;;;2.55;0.57;;;15.40;99.90;;;;;;5029683;28;20049;-80
2022/07/15 03:42:04;;;;;;;3.58;0.40;;;15.40;99.90;;;;;;4940776;28;20047;-80
2022/07/15 03:44:47;;;;;;;2.10;0.40;;;15.30;99.90;;;;;;5016707;28;20053;-80
2022/07/15 03:47:51;;;;;;;3.08;0.63;;;15.30;99.90;;;;;;4994909;28;20064;-80
2022/07/15 03:50:46;;;;;;;2.88;0.50;;;15.30;99.90;;;;;;4998968;28;20585;-80
2022/07/15 03:53:33;;;;;;;3.88;0.60;;;15.30;99.90;;;;;;5004097;28;20059;-80
2022/07/15 03:56:01;;;;;;;3.53;0.60;;;15.30;99.90;;;;;;5003171;28;20042;-79
2022/07/15 03:58:29;;;;;;;3.83;0.50;;;15.30;99.90;;;;;;5004613;28;20511;-79
2022/07/15 04:01:00;;;;;;;5.55;0.40;;;15.30;99.90;;;;;;4998075;28;20075;-79
2022/07/15 04:03:27;;;;;;;3.92;0.50;;;15.30;99.90;;;;;;5004060;28;20055;-80
2022/07/15 04:05:54;;;;;;;2.80;0.30;;;15.30;99.90;;;;;;4981721;28;21252;-80
2022/07/15 04:08:20;;;;;;;2.72;0.40;;;15.30;99.90;;;;;;4995128;28;20516;-80
2022/07/15 04:10:51;;;;;;;3.53;0.47;;;15.30;99.90;;;;;;4993705;28;20033;-80
2022/07/15 04:13:18;;;;;;;2.00;0.30;;;15.40;99.90;;;;;;4979097;28;20044;-80
2022/07/15 04:15:46;;;;;;;4.43;0.40;;;15.30;99.90;;;;;;5010980;28;20409;-79
2022/07/15 04:18:12;;;;;;;2.35;0.40;;;15.30;99.90;;;;;;5012583;28;20041;-79
2022/07/15 04:20:39;;;;;;;3.53;0.45;;;15.30;99.90;;;;;;4994689;28;20041;-80
2022/07/15 04:23:06;;;;;;;2.92;0.55;;;15.20;99.90;;;;;;4996135;28;20507;-79
2022/07/15 04:25:33;;;;;;;3.42;0.40;;;15.20;99.90;;;;;;4996894;28;20033;-80
2022/07/15 04:28:01;;;;;;;1.17;0.30;;;15.10;99.90;;;;;;4997186;28;20057;-80
2022/07/15 04:30:31;;;;;;;1.93;0.40;;;15.10;99.90;;;;;;4996052;28;20045;-80
2022/07/15 04:32:57;;;;;;;2.50;0.40;;;15.20;99.90;;;;;;5013011;28;20033;-80
2022/07/15 04:35:29;;;;;;;1.65;0.30;;;15.10;99.90;;;;;;4997817;28;20053;-80
2022/07/15 04:38:03;;;;;;;0.90;0.30;;;15.10;99.90;;;;;;4980820;28;20059;-80
2022/07/15 04:40:32;;;;;;;1.95;0.30;;;15.10;99.90;;;;;;4996038;28;20416;-80
2022/07/15 04:43:03;;;;;;;2.92;0.45;;;15.10;99.90;;;;;;5012713;28;20056;-80
2022/07/15 04:45:32;;;;;;;3.05;0.60;;;15.10;99.90;;;;;;4994999;28;20048;-80
2022/07/15 04:47:59;;;;;;;3.35;0.50;;;15.10;99.90;;;;;;4996793;28;20388;-80
2022/07/15 04:50:51;;;;;;;4.75;0.60;;;15.00;99.90;;;;;;4977992;28;20044;-81
2022/07/15 04:53:20;;;;;;;3.97;0.60;;;15.00;99.90;;;;;;4979180;28;20037;-80
2022/07/15 04:55:49;;;;;;;4.88;0.75;;;15.10;99.90;;;;;;5007969;28;20041;-80
2022/07/15 04:58:36;;;;;;;4.57;0.40;;;15.10;99.90;;;;;;5009203;28;20036;-80
2022/07/15 05:01:25;;;;;;;4.65;0.90;;;15.20;99.90;;;;;;5013751;28;20060;-81
2022/07/15 05:04:12;;;;;;;3.63;0.40;;;15.20;99.90;;;;;;4994492;28;20394;-80
2022/07/15 05:07:15;;;;;;;2.58;0.40;;;15.30;99.90;;;;;;4975141;28;20037;-81
2022/07/15 05:09:47;;;;;;;3.08;0.40;;;15.40;99.90;;;;;;4996153;28;20412;-80
2022/07/15 05:12:47;;;;;;;3.58;0.50;;;15.40;99.90;;;;;;5014066;28;20044;-81
2022/07/15 05:16:04;;;;;;;5.65;0.40;;;15.40;99.90;;;;;;5014900;28;20404;-81
2022/07/15 05:18:34;;;;;;;2.80;0.40;;;15.40;99.90;;;;;;5000477;28;20053;-81
2022/07/15 05:21:05;;;;;;;4.70;0.50;;;15.50;99.90;;;;;;5014410;28;20049;-81
2022/07/15 05:23:37;;;;;;;8.60;0.60;;;15.50;99.90;;;;;;4986191;28;20052;-80
2022/07/15 05:26:11;;;;;;;2.78;0.40;;;15.50;99.90;;;;;;5014466;28;20033;-80
2022/07/15 05:28:53;;;;;;;3.47;0.40;;;15.70;99.90;;;;;;5002862;28;21190;-80
2022/07/15 05:31:30;;;;;;;3.70;0.50;;;15.90;99.90;;;;;;5019059;28;20045;-80
2022/07/15 05:34:05;;;;;;;4.53;0.60;;;16.10;99.90;;;;;;5019658;28;20380;-80
2022/07/15 05:36:41;;;;;;;2.78;0.50;;;16.30;99.90;;;;;;4988805;28;20045;-80
2022/07/15 05:39:17;;;;;;;3.15;0.47;;;16.40;99.90;;;;;;4987170;28;20036;-80
2022/07/15 05:41:58;;;;;;;3.17;0.52;;;16.60;99.90;;;;;;5018484;28;20064;-80
2022/07/15 05:44:55;;;;;;;3.83;0.60;;;16.80;99.90;;;;;;5008245;28;20048;-80
2022/07/15 05:47:26;;;;;;;7.72;0.60;;;17.00;99.90;;;;;;5001146;28;20058;-82
2022/07/15 05:49:57;;;;;;;4.43;0.50;;;17.20;99.90;;;;;;5001206;28;20042;-82
2022/07/15 05:52:59;;;;;;;4.70;0.47;;;17.30;99.90;;;;;;5026593;28;20030;-81
2022/07/15 05:55:45;;;;;;;2.53;0.57;;;17.40;99.70;;;;;;4986293;28;20528;-80
2022/07/15 05:58:18;;;;;;;2.03;0.55;;;17.60;99.50;;;;;;4988260;28;20055;-85
2022/07/15 06:00:47;;;;;;;3.28;0.50;;;17.70;99.40;;;;;;4991398;28;20045;-86
2022/07/15 06:03:14;;;;;;;3.15;0.50;;;17.80;99.20;;;;;;5004035;28;20382;-85
2022/07/15 06:05:43;;;;;;;6.57;1.35;;;18.00;99.00;;;;;;4988883;28;20056;-84
2022/07/15 06:08:16;;;;;;;4.55;1.50;;;18.10;98.80;;;;;;4984357;28;20041;-86
2022/07/15 06:10:45;;;;;;;4.50;1.20;;;18.30;98.60;;;;;;4981870;28;20041;-86
2022/07/15 06:13:15;;;;;;;3.80;0.50;;;18.40;98.40;;;;;;4963959;28;20049;-83
2022/07/15 06:15:43;;;;;;;2.60;0.70;;;18.50;98.30;;;;;;4986065;28;21054;-85
2022/07/15 06:18:16;;;;;;;4.63;0.60;;;18.70;98.00;;;;;;4985957;28;20045;-86
2022/07/15 06:20:50;;;;;;;5.80;0.70;;;18.90;97.90;;;;;;4984405;28;20060;-85
2022/07/15 06:23:34;;;;;;;3.10;0.50;;;19.40;97.40;;;;;;4982567;28;20045;-87
2022/07/15 06:26:00;;;;;;;4.05;0.50;;;19.80;96.90;;;;;;4969031;28;20060;-88
2022/07/15 06:28:27;;;;;;;2.45;0.50;;;20.20;96.20;;;;;;4980100;28;21219;-87
2022/07/15 06:30:54;;;;;;;2.72;0.50;;;20.50;95.60;;;;;;5007439;28;20048;-87
2022/07/15 06:33:23;;;;;;;3.67;0.40;;;20.60;94.90;;;;;;4978505;28;20696;-85
2022/07/15 06:35:50;;;;;;;3.35;0.60;;;20.60;94.80;;;;;;4994079;28;20060;-87
2022/07/15 06:38:17;;;;;;;3.50;0.47;;;20.60;94.40;;;;;;5009318;28;20033;-85
2022/07/15 06:40:47;;;;;;;3.88;0.70;;;20.60;94.40;;;;;;4993262;28;20042;-86
2022/07/15 06:43:13;;;;;;;4.05;0.50;;;20.60;94.30;;;;;;5009821;28;20489;-86
2022/07/15 06:46:06;;;;;;;2.55;0.60;;;20.70;94.10;;;;;;4993705;28;20689;-88
2022/07/15 06:48:33;;;;;;;6.78;4.13;;;20.70;94.00;;;;;;4977044;28;20409;-89
2022/07/15 06:51:02;;;;;;;3.45;1.35;;;20.90;93.80;;;;;;4987257;28;20500;-89
2022/07/15 06:53:37;;;;;;;7.60;1.35;;;21.00;92.80;;;;;;4992993;28;20028;-85
2022/07/15 06:56:26;;;;;;;3.05;0.60;;;21.00;92.50;;;;;;4996184;28;20029;-88
2022/07/15 07:00:00;;;;;;;2.55;0.50;;;20.90;92.20;;;;;;4981478;28;20505;-89
2022/07/15 07:02:54;;;;;;;3.80;0.57;;;20.80;91.90;;;;;;4944776;28;20057;-89
2022/07/15 07:06:05;;;;;;;1.67;0.40;;;20.80;91.80;;;;;;4996347;28;20156;-88
2022/07/15 07:08:41;;;;;;;2.28;0.40;;;21.00;91.60;;;;;;4969923;28;20048;-87
2022/07/15 07:11:44;;;;;;;1.85;0.30;;;21.20;91.30;;;;;;5008739;28;20515;-83
2022/07/15 07:14:17;;;;;;;1.40;0.30;;;21.30;90.90;;;;;;4984773;28;20052;-86
2022/07/15 07:17:05;;;;;;;3.20;0.35;;;21.40;90.70;;;;;;4979728;28;20060;-85
2022/07/15 07:19:57;;;;;;;3.83;0.50;;;21.50;90.30;;;;;;4985090;28;20050;-84
2022/07/15 07:22:33;;;;;;;3.00;0.63;;;21.70;90.10;;;;;;4977492;28;20057;-85
2022/07/15 07:25:14;;;;;;;2.40;0.43;;;21.70;88.80;;;;;;4968984;28;20052;-89
2022/07/15 07:27:54;;;;;;;;;;;21.80;87.80;;;;;;5000356;28;20428;-89
2022/07/15 07:31:00;;;;;;;1.67;0.40;;;21.80;87.40;;;;;;4965452;28;19920;-87
2022/07/15 07:33:38;;;;;;;3.42;0.82;;;22.00;87.10;;;;;;4988852;28;20049;-85
2022/07/15 07:36:06;;;;;;;2.35;0.60;;;22.20;85.90;;;;;;4972061;28;20117;-87
2022/07/15 07:38:37;;;;;;;2.78;0.40;;;22.30;85.20;;;;;;4972606;28;20045;-86
2022/07/15 07:41:08;;;;;;;1.75;0.40;;;22.40;83.60;;;;;;4986649;28;20045;-83
2022/07/15 07:43:37;;;;;;;1.77;0.30;;;22.50;83.20;;;;;;4972730;28;20049;-83
2022/07/15 07:46:38;;;;;;;2.58;0.30;;;22.60;82.00;;;;;;5024192;28;20048;-82
2022/07/15 07:49:07;;;;;;;1.00;0.30;;;22.80;80.70;;;;;;4993835;28;21024;-83
2022/07/15 07:51:33;;;;;;;1.48;0.52;;;22.80;80.20;;;;;;4992319;28;20045;-83
2022/07/15 07:54:00;;;;;;;1.02;0.20;;;22.80;79.30;;;;;;5008536;28;20058;-82
2022/07/15 07:56:26;;;;;;;1.42;0.40;;;22.90;78.50;;;;;;4976569;28;20044;-82
2022/07/15 07:58:53;;;;;;;1.27;0.30;;;22.90;77.90;;;;;;4997199;28;20056;-82
2022/07/15 08:01:26;;;;;;;1.10;0.20;;;23.00;75.80;;;;;;5011062;28;20037;-82
2022/07/15 08:03:53;;;;;;;0.70;0.20;;;23.20;76.20;;;;;;5028130;28;20045;-84
2022/07/15 08:06:22;;;;;;;1.15;0.25;;;23.30;75.70;;;;;;4967054;28;20063;-83
2022/07/15 08:08:57;;;;;;;2.55;0.20;;;23.50;74.80;;;;;;5009421;28;20382;-84
2022/07/15 08:11:31;;;;;;;0.90;0.20;;;23.60;73.90;;;;;;5009468;28;20388;-82
2022/07/15 08:14:02;;;;;;;0.20;0.13;;;23.70;72.30;;;;;;5012686;28;20048;-89
2022/07/15 08:16:33;;;;;;;0.75;0.20;;;23.80;71.70;;;;;;4978479;28;20037;-83
2022/07/15 08:19:04;;;;;;;1.67;0.20;;;23.80;70.90;;;;;;5011811;28;20025;-89
2022/07/15 08:21:31;;;;;;;2.67;0.25;;;23.70;70.80;;;;;;4974854;28;20049;-85
2022/07/15 08:23:57;;;;;;;2.38;0.20;;;23.70;71.00;;;;;;4993761;28;20049;-85
2022/07/15 08:26:28;;;;;;;1.70;0.38;;;23.60;70.70;;;;;;5010152;28;20037;-81
2022/07/15 08:28:55;;;;;;;2.35;1.00;;;23.30;70.00;;;;;;5008421;28;20064;-80
2022/07/15 08:31:21;;;;;;;2.40;0.40;;;23.30;70.40;;;;;;4947058;28;20041;-80
2022/07/15 08:33:48;;;;;;;2.38;0.30;;;23.60;70.30;;;;;;4994453;28;20037;-83
2022/07/15 08:36:24;;;;;;;1.23;0.30;;;24.10;70.00;;;;;;4988137;28;20054;-86
2022/07/15 08:38:51;;;;;;;0.75;0.20;;;24.60;69.30;;;;;;5006758;28;20046;-85
2022/07/15 08:41:19;;;;;;;1.63;0.40;;;25.00;68.30;;;;;;4982802;28;20109;-83
2022/07/15 08:43:48;;;;;;;3.03;0.50;;;25.10;68.50;;;;;;4994683;28;20056;-82
2022/07/15 08:46:16;;;;;;;2.33;0.50;;;25.00;68.90;;;;;;4977986;28;20052;-83
2022/07/15 08:48:49;;;;;;;3.47;0.47;;;24.90;69.20;;;;;;5011598;28;20040;-84
2022/07/15 08:51:24;;;;;;;2.90;0.40;;;24.60;69.60;;;;;;4978769;28;20053;-81
2022/07/15 08:53:52;;;;;;;2.20;0.30;;;24.40;70.00;;;;;;4997335;28;20045;-83
2022/07/15 08:56:30;;;;;;;2.15;0.40;;;24.20;70.20;;;;;;4987010;28;20045;-79
2022/07/15 08:59:26;;;;;;;1.20;0.20;;;24.10;70.70;;;;;;4985849;28;20512;-83
2022/07/15 09:02:20;;;;;;;3.03;0.35;;;23.90;70.40;;;;;;5013524;28;20455;-86
2022/07/15 09:05:21;;;;;;;1.77;0.40;;;23.70;70.60;;;;;;4995505;28;20052;-83
2022/07/15 09:08:36;;;;;;;;;;;;;;;;;;;;;
2022/07/15 09:11:57;;;;;;;3.63;1.23;;;23.70;70.60;;;;;;4978217;28;20033;-86
2022/07/15 09:15:01;;;;;;;3.70;0.40;;;23.80;69.90;;;;;;4993944;28;20583;-83
2022/07/15 09:17:52;;;;;;;17.83;1.05;;;23.80;69.60;;;;;;4993019;28;20741;-83
2022/07/15 09:20:37;;;;;;;2.05;0.30;;;23.90;69.50;;;;;;4975876;28;20072;-82
2022/07/15 09:23:31;;;;;;;5.15;0.25;;;24.20;69.00;;;;;;4981443;28;20033;-82
2022/07/15 09:27:08;;;;;;;3.20;0.40;;;24.60;68.70;;;;;;4962223;28;20045;-88
2022/07/15 09:36:53;;;;;;;;;;;;;;;;;;;;;
2022/07/15 09:39:01;;;;;;;1.23;0.20;;;24.80;66.60;;;;;;4992982;28;20501;-86
2022/07/15 09:41:47;;;;;;;3.17;0.35;;;24.60;66.70;;;;;;4993097;28;20085;-82
2022/07/15 09:44:45;;;;;;;2.08;0.30;;;24.40;67.30;;;;;;5009410;28;20040;-85
2022/07/15 09:47:42;;;;;;;1.55;0.30;;;24.30;67.50;;;;;;5010530;28;20532;-82
2022/07/15 09:50:41;;;;;;;1.70;0.30;;;24.20;67.30;;;;;;5009788;28;20038;-79
2022/07/15 09:53:13;;;;;;;2.30;0.60;;;24.00;67.50;;;;;;5014364;28;20308;-79
2022/07/15 09:55:41;;;;;;;2.22;0.70;;;24.10;68.10;;;;;;5012684;28;20049;-79
2022/07/15 09:58:10;;;;;;;2.60;0.40;;;24.20;68.30;;;;;;4993990;28;20041;-85
2022/07/15 10:00:37;;;;;;;1.95;0.35;;;24.50;68.40;;;;;;5024140;28;20128;-81
2022/07/15 10:03:04;;;;;;;3.20;0.40;;;24.70;68.40;;;;;;5020448;28;20052;-80
2022/07/15 10:05:39;;;;;;;3.55;0.40;;;24.70;67.10;;;;;;5004263;28;20041;-86
2022/07/15 10:08:08;;;;;;;1.98;0.30;;;24.80;67.50;;;;;;5020358;28;20029;-83
2022/07/15 10:10:39;;;;;;;3.30;0.40;;;24.70;67.50;;;;;;5018899;28;20041;-80
2022/07/15 10:13:24;;;;;;;1.02;0.20;;;24.60;68.00;;;;;;5019264;28;20049;-80
2022/07/15 10:16:12;;;;;;;2.08;0.40;;;24.50;68.00;;;;;;5019014;28;20045;-80
2022/07/15 10:18:56;;;;;;;2.03;0.30;;;24.50;67.60;;;;;;5018894;28;20077;-80
2022/07/15 10:21:47;;;;;;;2.75;0.30;;;24.50;67.10;;;;;;5013358;28;20037;-79
2022/07/15 10:24:35;;;;;;;3.00;0.30;;;24.20;67.40;;;;;;5014431;28;20366;-80
2022/07/15 10:27:36;;;;;;;3.50;0.38;;;24.20;67.20;;;;;;4997309;28;20041;-80
2022/07/15 10:30:06;;;;;;;3.00;0.30;;;24.10;67.00;;;;;;5008493;28;20068;-78
2022/07/15 10:33:03;;;;;;;2.08;0.30;;;24.10;67.60;;;;;;5001370;28;20025;-78
2022/07/15 10:35:53;;;;;;;10.82;7.30;;;24.60;67.20;;;;;;5015046;28;20037;-78
2022/07/15 10:38:25;;;;;;;2.72;1.17;;;24.90;66.70;;;;;;4985852;28;20038;-78
2022/07/15 10:41:00;;;;;;;4.15;0.57;;;25.20;66.20;;;;;;5015825;28;20040;-77
2022/07/15 10:43:49;;;;;;;2.15;0.30;;;25.50;65.50;;;;;;4983392;28;20045;-78
2022/07/15 10:46:26;;;;;;;3.47;0.50;;;25.90;64.30;;;;;;5012394;28;20064;-78
2022/07/15 10:48:58;;;;;;;1.48;0.30;;;26.30;63.60;;;;;;5015980;28;20049;-77
2022/07/15 10:51:45;;;;;;;1.02;0.30;;;26.40;62.60;;;;;;5014937;28;20041;-78
2022/07/15 10:54:32;;;;;;;4.00;0.40;;;26.20;62.80;;;;;;4998240;28;20424;-78
2022/07/15 10:57:29;;;;;;;;;;;;;;;;;;;;;
2022/07/15 11:00:06;;;;;;;2.50;0.30;;;26.20;62.20;;;;;;5003035;28;20804;-80
2022/07/15 11:02:56;;;;;;;;;;;26.50;62.60;;;;;;5014482;28;20049;-81
2022/07/15 11:05:32;;;;;;;1.20;0.20;;;26.60;62.20;;;;;;5014857;28;20269;-79
2022/07/15 11:08:43;;;;;;;1.95;0.20;;;26.40;61.30;;;;;;5012584;28;21079;-79
2022/07/15 11:12:14;;;;;;;1.88;0.35;;;26.40;61.30;;;;;;5007336;28;20045;-82
2022/07/15 11:14:54;;;;;;;1.75;0.30;;;26.40;61.10;;;;;;5004481;28;20052;-82
2022/07/15 11:18:20;;;;;;;1.48;0.47;;;26.20;61.50;;;;;;5013184;28;20049;-80
2022/07/15 11:20:50;;;;;;;1.65;0.30;;;26.00;61.40;;;;;;5004204;28;20053;-80
2022/07/15 11:23:22;;;;;;;1.17;0.38;;;25.80;61.40;;;;;;5011640;28;20044;-82
2022/07/15 11:26:50;;;;;;;1.85;0.30;;;25.90;61.80;;;;;;4959371;28;20533;-82
2022/07/15 11:30:03;;;;;;;2.60;0.30;;;26.60;61.20;;;;;;5005414;28;20045;-82
2022/07/15 11:32:35;;;;;;;1.67;0.30;;;26.80;60.60;;;;;;5008098;28;20203;-86
2022/07/15 11:36:03;;;;;;;1.10;0.20;;;26.80;60.80;;;;;;5003199;28;20050;-85
2022/07/15 11:38:14;;;;;;;;;;;26.70;61.20;;;;;;4994656;28;20041;-85
2022/07/15 11:47:01;;;;;;;2.08;0.20;;;26.70;61.10;;;;;;4978601;28;20032;-86
2022/07/15 11:49:43;;;;;;;3.58;0.30;;;27.50;60.30;;;;;;4995148;28;20041;-85
2022/07/15 11:52:26;;;;;;;3.33;0.40;;;28.00;58.60;;;;;;5012723;28;20527;-85
2022/07/15 11:55:21;;;;;;;2.35;0.30;;;28.60;58.50;;;;;;4985105;28;20177;-86
2022/07/15 11:57:56;;;;;;;;;;;29.50;56.10;;;;;;4991636;28;20038;-84
2022/07/15 12:00:29;;;;;;;1.35;0.30;;;29.70;55.90;;;;;;4962562;28;19921;-86
2022/07/15 12:03:07;;;;;;;4.30;0.30;;;30.10;55.80;;;;;;4960170;28;20052;-86
2022/07/15 12:05:34;;;;;;;1.75;0.30;;;30.70;54.70;;;;;;4959233;28;20045;-86
2022/07/15 12:08:00;;;;;;;2.15;0.30;;;30.90;53.30;;;;;;4963550;28;20030;-87
2022/07/15 12:10:38;;;;;;;2.92;0.32;;;30.60;53.70;;;;;;4973448;28;20050;-85
2022/07/15 12:13:08;;;;;;;1.15;0.30;;;30.00;54.00;;;;;;4959717;28;20037;-87
2022/07/15 12:15:40;;;;;;;1.92;0.25;;;29.80;54.70;;;;;;4976517;28;20050;-86
2022/07/15 12:18:10;;;;;;;1.60;0.30;;;30.10;53.90;;;;;;4980928;28;21013;-87
2022/07/15 12:20:39;;;;;;;0.90;0.20;;;30.00;54.00;;;;;;4964356;28;20405;-87
2022/07/15 12:23:10;;;;;;;2.15;0.30;;;29.90;53.50;;;;;;4975952;28;20057;-88
2022/07/15 12:25:39;;;;;;;2.63;0.20;;;29.80;54.30;;;;;;4981454;28;20396;-85
2022/07/15 12:28:27;;;;;;;2.53;0.30;;;30.70;53.20;;;;;;4997841;28;20037;-86
2022/07/15 12:30:54;;;;;;;1.00;0.30;;;31.90;51.90;;;;;;5013773;28;20064;-86
2022/07/15 12:33:22;;;;;;;1.35;0.22;;;32.00;50.70;;;;;;4983501;28;20488;-87
2022/07/15 12:35:49;;;;;;;1.23;0.30;;;31.50;51.10;;;;;;5013204;28;20396;-86
2022/07/15 12:38:30;;;;;;;2.05;0.38;;;31.50;51.60;;;;;;4997573;28;20036;-85
2022/07/15 12:41:08;;;;;;;0.80;0.20;;;31.50;50.80;;;;;;4983951;28;20036;-89
2022/07/15 12:43:53;;;;;;;1.60;0.40;;;31.40;50.60;;;;;;4982209;28;20041;-87
2022/07/15 12:46:53;;;;;;;3.13;0.50;;;30.80;50.60;;;;;;4996328;28;20400;-87
2022/07/15 12:49:51;;;;;;;1.58;0.50;;;30.00;51.40;;;;;;4998287;28;20044;-89
2022/07/15 12:52:36;;;;;;;1.42;0.20;;;29.20;52.40;;;;;;4986714;28;20064;-86
2022/07/15 12:55:20;;;;;;;3.03;0.40;;;28.40;53.20;;;;;;4998041;28;20407;-86
2022/07/15 12:58:37;;;;;;;2.58;0.30;;;27.70;54.00;;;;;;4998696;28;20040;-88
2022/07/15 13:01:11;;;;;;;1.10;0.22;;;27.10;54.50;;;;;;5011333;28;20404;-86
2022/07/15 13:03:52;;;;;;;1.13;0.30;;;26.50;55.20;;;;;;5001465;28;20045;-85
2022/07/15 13:06:24;;;;;;;1.38;0.30;;;26.20;55.50;;;;;;5000314;28;20481;-87
2022/07/15 13:12:19;;;;;;;2.63;0.30;;;26.20;56.10;;;;;;4994002;28;20044;-83
2022/07/15 13:14:46;;;;;;;2.83;0.30;;;26.30;56.10;;;;;;4997856;28;20033;-86
2022/07/15 13:17:20;;;;;;;1.05;0.28;;;26.20;55.90;;;;;;4983566;28;20532;-86
2022/07/15 13:19:47;;;;;;;1.67;0.30;;;26.20;56.00;;;;;;5013094;28;20049;-86
2022/07/15 13:22:38;;;;;;;1.20;0.20;;;26.20;56.40;;;;;;4953644;28;20543;-87
2022/07/15 13:25:45;;;;;;;1.70;0.38;;;26.20;56.70;;;;;;5034944;28;20036;-86
2022/07/15 13:28:13;;;;;;;1.63;0.20;;;26.30;56.60;;;;;;4992625;28;20052;-82
2022/07/15 13:30:40;;;;;;;2.55;0.30;;;26.40;56.70;;;;;;5020778;28;20515;-85
2022/07/15 13:33:07;;;;;;;2.15;0.50;;;26.50;56.80;;;;;;4999564;28;20384;-84
2022/07/15 13:35:42;;;;;;;1.33;0.32;;;26.90;56.60;;;;;;5000682;28;20045;-83
2022/07/15 13:38:10;;;;;;;1.42;0.40;;;27.80;55.80;;;;;;5031248;28;20060;-83
2022/07/15 13:40:38;;;;;;;1.17;0.20;;;28.10;54.90;;;;;;4997331;28;20053;-83
2022/07/15 13:43:13;;;;;;;0.82;0.20;;;28.10;54.10;;;;;;4999587;28;20140;-84
2022/07/15 13:46:10;;;;;;;1.70;0.20;;;28.40;54.00;;;;;;5002943;28;20060;-83
2022/07/15 13:48:37;;;;;;;1.40;0.20;;;28.60;54.30;;;;;;5017066;28;20044;-83
2022/07/15 13:53:52;;;;;;;1.23;0.20;;;29.10;52.60;;;;;;5018005;28;20028;-81
2022/07/15 13:56:21;;;;;;;0.80;0.20;;;28.80;52.90;;;;;;5035892;28;20057;-85
2022/07/15 13:58:48;;;;;;;0.90;0.20;;;28.40;53.60;;;;;;5026997;28;20056;-83
2022/07/15 14:01:15;;;;;;;1.95;0.20;;;28.30;53.90;;;;;;5020053;28;20381;-83
2022/07/15 14:03:42;;;;;;;0.90;0.20;;;28.20;54.20;;;;;;4976860;28;20056;-79
2022/07/15 14:06:09;;;;;;;0.70;0.20;;;27.90;54.80;;;;;;5003870;28;20048;-84
2022/07/15 14:08:41;;;;;;;1.98;0.28;;;27.70;55.30;;;;;;4978300;28;20046;-83